Time;durP1;ratioP1;P1;durP2;ratioP2;P2;SDS_P1;SDS_P2;PMS_P1;PMS_P2;Temp;Humidity;BMP_temperature;BMP_pressure;BME280_temperature;BME280_humidity;BME280_pressure;Samples;Min_cycle;Max_cycle;Signal;HPM_P1;HPM_P2
2020/12/26 00:00:47;;;;;;;8.52;3.64;;;;;;;1.85;66.92;98884.27;343213;115;1962023;-73
2020/12/26 00:01:52;;;;;;;8.53;3.07;;;;;;;1.83;67.23;98883.63;321217;113;2568027;-73
2020/12/26 00:02:59;;;;;;;8.24;3.74;;;;;;;1.84;67.39;98889.78;349655;113;1961950;-73
2020/12/26 00:04:05;;;;;;;8.33;2.74;;;;;;;1.83;67.34;98886.30;348409;113;1962015;-73
2020/12/26 00:05:11;;;;;;;7.73;3.16;;;;;;;1.83;67.04;98883.63;328632;113;2399955;-73
2020/12/26 00:06:19;;;;;;;6.98;3.44;;;;;;;1.84;67.03;98885.28;348450;113;1961965;-73
2020/12/26 00:07:25;;;;;;;5.88;2.59;;;;;;;1.86;67.01;98885.95;318474;113;2629007;-73
2020/12/26 00:08:32;;;;;;;7.98;3.07;;;;;;;1.87;66.63;98884.94;338192;115;1961941;-73
2020/12/26 00:09:38;;;;;;;7.51;2.95;;;;;;;1.84;66.88;98887.95;350039;113;1961693;-73
2020/12/26 00:10:45;;;;;;;7.41;3.01;;;;;;;1.87;66.69;98890.27;347405;115;1961904;-73
2020/12/26 00:11:51;;;;;;;6.71;2.94;;;;;;;1.86;66.82;98885.95;347500;113;1962987;-73
2020/12/26 00:12:57;;;;;;;7.34;3.80;;;;;;;1.85;66.94;98892.27;348655;113;1963048;-73
2020/12/26 00:14:03;;;;;;;5.79;2.63;;;;;;;1.83;67.08;98888.14;335420;113;1963024;-73
2020/12/26 00:15:08;;;;;;;6.93;3.01;;;;;;;1.83;66.97;98886.30;349820;113;1961999;-73
2020/12/26 00:16:17;;;;;;;6.37;2.78;;;;;;;1.84;66.68;98892.45;320319;113;1962049;-73
2020/12/26 00:17:23;;;;;;;6.21;2.38;;;;;;;1.84;66.76;98890.61;348898;114;1961928;-73
2020/12/26 00:18:29;;;;;;;6.48;2.81;;;;;;;1.84;66.73;98895.94;350093;113;1961943;-74
2020/12/26 00:19:35;;;;;;;6.16;2.41;;;;;;;1.83;66.99;98899.61;332498;113;2293021;-74
2020/12/26 00:20:40;;;;;;;6.21;2.23;;;;;;;1.84;66.89;98898.59;349199;115;1964913;-74
2020/12/26 00:21:45;;;;;;;6.06;2.12;;;;;;;1.80;66.74;98897.30;347085;114;1961966;-74
2020/12/26 00:22:51;;;;;;;6.09;2.79;;;;;;;1.83;66.95;98898.78;346481;113;1961990;-73
2020/12/26 00:23:56;;;;;;;5.64;2.45;;;;;;;1.88;66.79;98901.74;347563;113;1962001;-74
2020/12/26 00:25:03;;;;;;;6.22;2.17;;;;;;;1.87;66.69;98898.25;315458;113;2694933;-73
2020/12/26 00:26:09;;;;;;;7.87;2.75;;;;;;;1.88;66.74;98901.74;349840;113;1961917;-73
2020/12/26 00:27:28;;;;;;;5.22;2.44;;;;;;;1.88;67.02;98904.41;347612;114;1961981;-73
2020/12/26 00:28:33;;;;;;;6.42;2.70;;;;;;;1.86;66.82;98909.09;353676;112;1961940;-73
2020/12/26 00:29:39;;;;;;;7.11;3.16;;;;;;;1.83;67.00;98904.11;355872;112;1962037;-73
2020/12/26 00:30:45;;;;;;;6.63;2.82;;;;;;;1.85;67.08;98908.23;329722;112;2204031;-73
2020/12/26 00:31:51;;;;;;;6.02;2.61;;;;;;;1.83;66.97;98910.27;349281;114;1964952;-73
2020/12/26 00:32:56;;;;;;;6.46;2.90;;;;;;;1.84;67.08;98908.42;351395;114;1961991;-73
2020/12/26 00:34:03;;;;;;;6.79;2.83;;;;;;;1.82;67.19;98907.75;356866;112;1962034;-73
2020/12/26 00:35:09;;;;;;;5.53;2.27;;;;;;;1.80;67.36;98905.28;343774;102;1961912;-73
2020/12/26 00:36:16;;;;;;;7.59;2.82;;;;;;;1.80;67.25;98907.94;359581;111;1961955;-73
2020/12/26 00:37:22;;;;;;;5.97;2.24;;;;;;;1.81;67.17;98906.11;331223;111;2531959;-72
2020/12/26 00:38:27;;;;;;;6.63;2.53;;;;;;;1.81;67.28;98909.59;353833;111;1962960;-73
2020/12/26 00:39:33;;;;;;;6.13;2.46;;;;;;;1.83;67.15;98906.77;358382;111;1962968;-73
2020/12/26 00:40:39;;;;;;;5.87;2.46;;;;;;;1.81;67.33;98908.77;357035;111;1963000;-73
2020/12/26 00:41:46;;;;;;;5.34;2.28;;;;;;;1.80;67.49;98912.41;317802;111;2748134;-73
2020/12/26 00:42:51;;;;;;;5.26;2.20;;;;;;;1.80;67.54;98909.75;355330;112;1961944;-73
2020/12/26 00:43:58;;;;;;;6.59;2.18;;;;;;;1.82;67.53;98913.08;355897;112;1962030;-73
2020/12/26 00:45:04;;;;;;;6.06;2.38;;;;;;;1.83;67.63;98920.91;328326;113;2502057;-73
2020/12/26 00:46:11;;;;;;;7.47;2.50;;;;;;;1.80;67.73;98907.09;355944;111;1964966;-74
2020/12/26 00:47:17;;;;;;;6.23;2.57;;;;;;;1.76;67.92;98914.59;357364;111;1964017;-73
2020/12/26 00:48:24;;;;;;;6.09;2.29;;;;;;;1.78;67.59;98917.92;357968;111;1960841;-73
2020/12/26 00:49:29;;;;;;;6.22;2.54;;;;;;;1.77;67.52;98910.91;358433;113;1963958;-73
2020/12/26 00:50:45;;;;;;;5.57;2.33;;;;;;;1.78;67.66;98919.77;337612;113;2332847;-73
2020/12/26 00:51:53;;;;;;;5.21;2.18;;;;;;;1.74;67.85;98911.25;312870;111;2179654;-74
2020/12/26 00:52:59;;;;;;;4.51;2.05;;;;;;;1.76;67.79;98918.08;356578;112;1963943;-74
2020/12/26 00:54:05;;;;;;;6.52;2.40;;;;;;;1.76;67.89;98917.25;335602;113;1962014;-73
2020/12/26 00:55:11;;;;;;;5.56;2.07;;;;;;;1.78;67.92;98914.44;347147;114;1961981;-73
2020/12/26 00:56:18;;;;;;;5.90;2.67;;;;;;;1.79;67.88;98916.08;324394;114;2504879;-73
2020/12/26 00:57:24;;;;;;;5.01;2.08;;;;;;;1.77;67.75;98908.25;345257;114;1961967;-75
2020/12/26 00:58:29;;;;;;;6.02;2.22;;;;;;;1.66;67.98;98887.30;351274;113;1961939;-74
2020/12/26 00:59:36;;;;;;;5.77;2.33;;;;;;;1.75;68.17;98905.77;351205;113;1963006;-74
2020/12/26 01:00:43;;;;;;;4.67;2.00;;;;;;;1.75;68.15;98916.42;347770;114;1961917;-74
2020/12/26 01:01:54;;;;;;;5.29;2.27;;;;;;;1.77;68.07;98918.91;343415;117;1962035;-72
2020/12/26 01:03:01;;;;;;;5.58;2.05;;;;;;;1.76;68.13;98912.75;326502;115;1962940;-73
2020/12/26 01:04:09;;;;;;;4.79;1.95;;;;;;;1.76;68.17;98914.59;345706;115;1970052;-73
2020/12/26 01:05:29;;;;;;;5.56;1.96;;;;;;;1.74;68.15;98925.39;311407;115;2042144;-72
2020/12/26 01:06:35;;;;;;;4.40;1.74;;;;;;;1.74;68.02;98917.41;351819;112;1961984;-73
2020/12/26 01:07:40;;;;;;;4.64;2.33;;;;;;;1.74;67.99;98917.41;356155;112;1961957;-73
2020/12/26 01:08:46;;;;;;;4.36;1.94;;;;;;;1.73;68.06;98914.93;355135;112;1961998;-73
2020/12/26 01:10:03;;;;;;;5.43;2.08;;;;;;;1.73;68.09;98920.25;348535;114;1961938;-73
2020/12/26 01:11:08;;;;;;;4.57;2.18;;;;;;;1.72;68.18;98921.23;330261;113;1963937;-73
2020/12/26 01:12:15;;;;;;;4.28;1.58;;;;;;;1.71;68.30;98919.58;352241;113;1962011;-74
2020/12/26 01:13:22;;;;;;;5.40;2.11;;;;;;;1.72;68.13;98924.75;314346;113;2714946;-74
2020/12/26 01:14:28;;;;;;;5.07;1.84;;;;;;;1.74;68.11;98924.56;350034;113;1961943;-74
2020/12/26 01:15:34;;;;;;;5.75;1.93;;;;;;;1.72;68.17;98926.56;348368;114;1963951;-75
2020/12/26 01:16:40;;;;;;;5.43;1.95;;;;;;;1.71;68.21;98920.41;331539;114;2217998;-74
2020/12/26 01:17:56;;;;;;;4.63;2.09;;;;;;;1.72;68.21;98921.23;332497;114;1961837;-74
2020/12/26 01:19:01;;;;;;;4.53;1.90;;;;;;;1.70;68.28;98929.41;354956;113;1961973;-73
2020/12/26 01:20:07;;;;;;;5.26;1.83;;;;;;;1.70;68.48;98920.59;356372;112;1962071;-74
2020/12/26 01:21:14;;;;;;;4.97;2.26;;;;;;;1.70;68.33;98920.59;325239;112;2560941;-73
2020/12/26 01:22:19;;;;;;;5.11;2.02;;;;;;;1.70;68.31;98918.76;354977;113;1961991;-73
2020/12/26 01:23:24;;;;;;;4.71;2.17;;;;;;;1.71;68.22;98916.92;355852;113;1961948;-74
2020/12/26 01:24:30;;;;;;;4.77;2.17;;;;;;;1.71;68.22;98920.41;356679;112;1961924;-73
2020/12/26 01:25:36;;;;;;;3.83;1.83;;;;;;;1.72;68.32;98915.91;330894;112;2455997;-73
2020/12/26 01:26:43;;;;;;;4.89;2.14;;;;;;;1.74;68.09;98928.06;355163;113;1961924;-73
2020/12/26 01:27:50;;;;;;;5.51;2.08;;;;;;;1.72;68.03;98921.23;316745;113;2926968;-73
2020/12/26 01:28:55;;;;;;;5.24;2.14;;;;;;;1.71;67.82;98920.41;325732;113;1961954;-73
2020/12/26 01:30:00;;;;;;;5.88;2.58;;;;;;;1.72;67.91;98926.56;353976;113;1961929;-73
2020/12/26 01:31:06;;;;;;;5.32;2.41;;;;;;;1.73;67.87;98917.59;355113;112;1962979;-74
2020/12/26 01:32:12;;;;;;;5.96;2.11;;;;;;;1.71;68.10;98933.72;354877;112;1962007;-73
2020/12/26 01:33:17;;;;;;;6.04;2.18;;;;;;;1.73;67.77;98925.58;321198;112;2658058;-73
2020/12/26 01:34:23;;;;;;;6.59;2.83;;;;;;;1.73;67.63;98936.23;339951;112;1961953;-73
2020/12/26 01:35:28;;;;;;;4.48;2.13;;;;;;;1.75;67.42;98929.73;354902;112;1961983;-73
2020/12/26 01:36:36;;;;;;;4.62;1.82;;;;;;;1.73;67.73;98928.24;348386;112;2902905;-73
2020/12/26 01:37:41;;;;;;;5.19;2.07;;;;;;;1.72;67.73;98923.89;329739;112;1961898;-74
2020/12/26 01:38:46;;;;;;;4.81;2.12;;;;;;;1.73;67.81;98922.92;355938;113;1964042;-73
2020/12/26 01:39:52;;;;;;;5.80;2.17;;;;;;;1.72;67.84;98929.22;355175;112;1962938;-73
2020/12/26 01:40:59;;;;;;;4.91;2.14;;;;;;;1.73;67.77;98928.24;337850;112;2330983;-73
2020/12/26 01:42:04;;;;;;;5.77;2.29;;;;;;;1.72;67.80;98930.08;326646;113;1963019;-73
2020/12/26 01:43:10;;;;;;;5.69;2.07;;;;;;;1.69;67.53;98925.09;355467;112;1962004;-74
2020/12/26 01:44:15;;;;;;;3.89;2.01;;;;;;;1.70;67.81;98923.25;355973;112;1961923;-73
2020/12/26 01:45:21;;;;;;;4.48;2.11;;;;;;;1.70;67.83;98920.59;356388;113;1961983;-73
2020/12/26 01:46:29;;;;;;;4.12;1.63;;;;;;;1.72;67.83;98921.23;324701;113;1962122;-73
2020/12/26 01:47:35;;;;;;;5.53;2.16;;;;;;;1.72;67.83;98923.89;354555;112;1961983;-74
2020/12/26 01:48:42;;;;;;;3.86;2.00;;;;;;;1.72;67.65;98921.23;354226;113;1961946;-73
2020/12/26 01:49:49;;;;;;;4.83;1.83;;;;;;;1.72;67.87;98911.44;356290;113;1961998;-74
2020/12/26 01:50:54;;;;;;;4.88;2.27;;;;;;;1.71;67.94;98915.08;326772;112;2554036;-72
2020/12/26 01:52:01;;;;;;;6.31;2.04;;;;;;;1.70;67.92;98909.94;331215;113;1961914;-73
2020/12/26 01:53:06;;;;;;;6.08;2.26;;;;;;;1.70;68.08;98908.11;356538;112;1962016;-73
2020/12/26 01:54:12;;;;;;;5.99;2.37;;;;;;;1.71;68.09;98911.59;355902;113;1963974;-72
2020/12/26 01:55:18;;;;;;;5.59;2.41;;;;;;;1.73;67.73;98913.09;318334;113;2218969;-73
2020/12/26 01:56:26;;;;;;;6.22;2.75;;;;;;;1.73;67.73;98917.59;345632;115;1961796;-73
2020/12/26 01:57:36;;;;;;;5.83;2.27;;;;;;;1.72;67.63;98918.57;331130;112;2480965;-74
2020/12/26 01:58:46;;;;;;;6.31;2.38;;;;;;;1.72;67.79;98915.91;340557;112;2256926;-73
2020/12/26 01:59:49;;;;;;;6.10;2.57;;;;;;;1.71;67.67;98917.75;356234;112;1962041;-75
2020/12/26 02:00:55;;;;;;;7.54;3.09;;;;;;;1.71;67.30;98917.75;319216;115;2542996;-74
2020/12/26 02:02:04;;;;;;;6.40;2.43;;;;;;;1.72;67.52;98918.57;334494;113;1963972;-73
2020/12/26 02:03:09;;;;;;;7.09;2.53;;;;;;;1.73;67.54;98917.59;310715;113;2203817;-73
2020/12/26 02:04:15;;;;;;;5.45;2.64;;;;;;;1.71;67.22;98922.24;354670;112;1964028;-73
2020/12/26 02:05:20;;;;;;;6.18;2.42;;;;;;;1.70;67.19;98928.58;356481;112;1961943;-73
2020/12/26 02:06:30;;;;;;;5.57;2.35;;;;;;;1.71;67.18;98928.39;355583;113;1962010;-74
2020/12/26 02:07:35;;;;;;;5.03;2.23;;;;;;;1.68;67.34;98925.25;357168;112;1963004;-73
2020/12/26 02:08:41;;;;;;;5.09;2.33;;;;;;;1.66;67.39;98933.39;354394;112;1961952;-73
2020/12/26 02:09:47;;;;;;;6.36;2.39;;;;;;;1.67;67.57;98926.26;343425;113;1962918;-73
2020/12/26 02:10:54;;;;;;;5.67;2.34;;;;;;;1.68;67.40;98925.25;355505;112;1965001;-73
2020/12/26 02:11:59;;;;;;;6.26;2.37;;;;;;;1.67;67.45;98923.59;355684;112;1961962;-74
2020/12/26 02:13:05;;;;;;;7.02;2.49;;;;;;;1.67;67.48;98927.08;336227;113;2354940;-73
2020/12/26 02:14:11;;;;;;;5.17;2.21;;;;;;;1.66;67.61;98922.73;355227;112;1961999;-73
2020/12/26 02:15:27;;;;;;;5.75;2.24;;;;;;;1.65;67.67;98925.59;355067;112;1962070;-73
2020/12/26 02:16:45;;;;;;;4.88;2.17;;;;;;;1.63;67.70;98927.58;316559;110;2812976;-72
2020/12/26 02:17:51;;;;;;;7.18;2.46;;;;;;;1.61;67.83;98927.73;358659;110;1960734;-72
2020/12/26 02:18:58;;;;;;;6.66;2.35;;;;;;;1.61;67.96;98935.72;358220;110;1961994;-71
2020/12/26 02:20:08;;;;;;;5.17;2.13;;;;;;;1.56;68.06;98932.72;356348;111;1962002;-72
2020/12/26 02:21:14;;;;;;;4.59;2.19;;;;;;;1.60;68.17;98938.56;355126;112;1963916;-73
2020/12/26 02:22:19;;;;;;;5.41;2.08;;;;;;;1.57;68.25;98939.72;359303;111;1960890;-72
2020/12/26 02:23:26;;;;;;;5.34;2.32;;;;;;;1.56;68.19;98935.38;317330;111;2680997;-73
2020/12/26 02:24:31;;;;;;;5.03;2.36;;;;;;;1.51;68.62;98943.89;358209;111;1960809;-71
2020/12/26 02:25:36;;;;;;;5.27;2.68;;;;;;;1.56;68.34;98940.70;358432;112;1961922;-72
2020/12/26 02:26:44;;;;;;;5.72;2.17;;;;;;;1.56;68.42;98939.88;343367;110;2258892;-72
2020/12/26 02:27:50;;;;;;;5.79;2.28;;;;;;;1.56;68.39;98946.03;352929;111;1961875;-73
2020/12/26 02:28:56;;;;;;;6.02;2.40;;;;;;;1.53;68.27;98941.04;360228;110;1962081;-72
2020/12/26 02:30:03;;;;;;;5.07;2.21;;;;;;;1.55;68.34;98944.38;321179;110;2905039;-72
2020/12/26 02:31:08;;;;;;;5.82;2.33;;;;;;;1.52;68.30;98942.05;360440;111;1963069;-73
2020/12/26 02:32:15;;;;;;;5.01;1.82;;;;;;;1.49;68.55;98945.88;360721;111;1961923;-72
2020/12/26 02:33:21;;;;;;;4.93;2.04;;;;;;;1.50;68.62;98944.04;329378;111;2562833;-73
2020/12/26 02:34:26;;;;;;;5.53;2.87;;;;;;;1.49;68.40;98956.52;342915;110;1962867;-73
2020/12/26 02:35:31;;;;;;;5.56;2.27;;;;;;;1.39;67.71;98933.73;362280;111;1962786;-73
2020/12/26 02:36:37;;;;;;;5.57;2.35;;;;;;;1.47;67.89;98950.52;361593;111;1961900;-73
2020/12/26 02:37:42;;;;;;;4.03;2.08;;;;;;;1.43;67.14;98943.03;360865;110;1961919;-73
2020/12/26 02:38:48;;;;;;;3.94;1.79;;;;;;;1.38;67.50;98945.38;324128;111;2656043;-73
2020/12/26 02:39:54;;;;;;;4.79;2.25;;;;;;;1.42;67.25;98952.84;352135;111;1960990;-73
2020/12/26 02:40:59;;;;;;;4.73;1.89;;;;;;;1.46;67.27;98948.05;360245;111;1961931;-72
2020/12/26 02:42:06;;;;;;;5.05;2.31;;;;;;;1.43;67.18;98946.55;359884;111;1961989;-73
2020/12/26 02:43:20;;;;;;;4.81;2.27;;;;;;;1.43;67.19;98948.34;317154;111;2167991;-73
2020/12/26 02:44:26;;;;;;;4.75;2.24;;;;;;;1.44;67.14;98940.21;333614;111;2227884;-73
2020/12/26 02:45:31;;;;;;;4.08;1.93;;;;;;;1.43;67.38;98941.22;352824;110;1964024;-73
2020/12/26 02:46:37;;;;;;;4.33;1.90;;;;;;;1.43;67.31;98953.67;359179;110;1962005;-72
2020/12/26 02:47:44;;;;;;;5.66;2.59;;;;;;;1.45;67.08;98955.17;357893;111;1961858;-73
2020/12/26 02:48:50;;;;;;;7.03;2.39;;;;;;;1.46;66.45;98954.20;334961;112;1961980;-72
2020/12/26 02:49:55;;;;;;;5.94;2.12;;;;;;;1.46;66.52;98950.70;355218;112;1962945;-72
2020/12/26 02:51:02;;;;;;;3.79;1.91;;;;;;;1.44;66.62;98947.37;357327;111;1961972;-72
2020/12/26 02:52:07;;;;;;;3.85;1.91;;;;;;;1.43;66.71;98941.22;337342;110;2440977;-72
2020/12/26 02:53:12;;;;;;;5.68;2.44;;;;;;;1.45;66.80;98943.70;343249;111;1966033;-73
2020/12/26 02:54:18;;;;;;;4.32;1.95;;;;;;;1.46;66.55;98940.06;360461;110;1961985;-72
2020/12/26 02:55:25;;;;;;;6.89;2.04;;;;;;;1.44;66.70;98934.89;359644;110;1961897;-73
2020/12/26 02:56:31;;;;;;;4.02;2.06;;;;;;;1.46;66.76;98940.89;354604;111;1961952;-72
2020/12/26 02:57:37;;;;;;;5.48;2.21;;;;;;;0.86;66.72;98848.88;359628;110;1963888;-72
2020/12/26 02:58:42;;;;;;;5.76;2.44;;;;;;;1.44;66.55;98942.05;357985;111;1962016;-73
2020/12/26 02:59:49;;;;;;;5.05;2.24;;;;;;;1.46;66.87;98946.20;358503;111;1963256;-72
2020/12/26 03:00:55;;;;;;;4.56;2.29;;;;;;;1.47;66.72;98953.19;358537;111;1961921;-71
2020/12/26 03:02:02;;;;;;;6.14;2.44;;;;;;;1.48;66.62;98946.03;358194;112;1961955;-72
2020/12/26 03:03:07;;;;;;;5.11;2.16;;;;;;;1.47;66.60;98950.52;332733;112;2451902;-73
2020/12/26 03:04:16;;;;;;;5.69;1.99;;;;;;;1.46;66.27;98951.53;355889;112;1961898;-73
2020/12/26 03:05:21;;;;;;;3.98;1.81;;;;;;;1.47;66.42;98947.86;334234;112;2431899;-72
2020/12/26 03:06:28;;;;;;;5.13;2.22;;;;;;;1.48;66.44;98951.34;356807;113;1962082;-72
2020/12/26 03:07:34;;;;;;;5.78;3.23;;;;;;;1.45;66.65;98947.19;357470;112;1961931;-72
2020/12/26 03:08:40;;;;;;;6.42;2.86;;;;;;;1.46;66.47;98950.70;317650;112;2736974;-72
2020/12/26 03:09:45;;;;;;;6.36;1.87;;;;;;;1.45;66.42;98946.36;356704;112;1963922;-72
2020/12/26 03:10:51;;;;;;;5.47;2.11;;;;;;;1.46;66.45;98953.37;356564;113;1962939;-72
2020/12/26 03:11:57;;;;;;;5.59;2.37;;;;;;;1.43;66.39;98957.19;357801;110;1962024;-71
2020/12/26 03:13:03;;;;;;;4.58;1.88;;;;;;;1.42;66.48;98949.36;330507;111;2506940;-72
2020/12/26 03:14:09;;;;;;;3.82;2.14;;;;;;;1.43;65.98;98956.33;357590;111;1961999;-72
2020/12/26 03:15:15;;;;;;;4.83;1.90;;;;;;;1.42;66.39;98954.68;358970;110;1962037;-72
2020/12/26 03:16:21;;;;;;;5.83;2.13;;;;;;;1.37;66.44;98949.02;328769;111;2223935;-70
2020/12/26 03:17:28;;;;;;;3.89;1.78;;;;;;;1.36;66.58;98960.67;357181;111;1961961;-72
2020/12/26 03:18:33;;;;;;;4.91;2.27;;;;;;;1.33;66.61;98958.34;356533;111;1961950;-72
2020/12/26 03:19:40;;;;;;;4.99;2.14;;;;;;;1.30;66.83;98957.66;317985;109;2119080;-73
2020/12/26 03:20:46;;;;;;;6.26;2.72;;;;;;;1.28;66.85;98954.33;361150;111;1961971;-72
2020/12/26 03:21:51;;;;;;;7.50;2.46;;;;;;;1.23;67.07;98958.48;348243;113;1961973;-71
2020/12/26 03:22:57;;;;;;;5.57;2.71;;;;;;;1.20;67.30;98961.47;355652;112;1962029;-72
2020/12/26 03:24:03;;;;;;;6.56;2.44;;;;;;;1.14;67.56;98968.28;337671;112;2221959;-72
2020/12/26 03:25:09;;;;;;;5.18;2.34;;;;;;;1.07;68.02;98965.42;356399;112;1962046;-71
2020/12/26 03:26:16;;;;;;;7.98;2.77;;;;;;;1.07;67.41;98972.58;357590;112;1961969;-73
2020/12/26 03:27:22;;;;;;;4.83;2.57;;;;;;;1.03;67.55;98972.08;327299;110;2613901;-73
2020/12/26 03:28:28;;;;;;;6.22;2.88;;;;;;;1.02;67.54;98975.72;357436;112;1961034;-73
2020/12/26 03:29:34;;;;;;;6.48;2.66;;;;;;;1.01;67.59;98978.55;359241;111;1961975;-72
2020/12/26 03:30:40;;;;;;;6.42;2.87;;;;;;;1.00;67.50;98977.70;320192;111;2046185;-72
2020/12/26 03:31:46;;;;;;;6.16;2.64;;;;;;;0.94;67.52;98988.98;359095;111;1961995;-72
2020/12/26 03:32:51;;;;;;;6.24;2.74;;;;;;;0.93;67.50;98979.36;361086;111;1960676;-72
2020/12/26 03:33:57;;;;;;;5.96;2.83;;;;;;;0.88;67.63;98989.64;359299;110;1963199;-72
2020/12/26 03:35:04;;;;;;;6.96;2.90;;;;;;;0.86;67.02;98987.13;321297;111;2749003;-72
2020/12/26 03:36:10;;;;;;;5.79;2.53;;;;;;;0.88;67.21;98985.15;357850;110;1961986;-72
2020/12/26 03:37:16;;;;;;;8.15;3.36;;;;;;;0.82;67.46;98983.14;358274;110;1961975;-72
2020/12/26 03:38:21;;;;;;;6.06;2.39;;;;;;;0.80;67.85;98993.09;344739;110;2270984;-71
2020/12/26 03:39:28;;;;;;;5.23;2.48;;;;;;;0.77;67.60;98985.44;359757;111;1962011;-71
2020/12/26 03:40:33;;;;;;;6.72;2.72;;;;;;;0.73;67.73;98985.91;353352;113;1961946;-72
2020/12/26 03:41:39;;;;;;;5.47;2.40;;;;;;;0.72;67.73;98984.27;355562;112;1964088;-74
2020/12/26 03:42:46;;;;;;;4.92;2.33;;;;;;;0.67;67.95;98981.25;331392;112;2505991;-72
2020/12/26 03:43:52;;;;;;;5.75;2.32;;;;;;;0.64;68.25;98977.08;361262;110;1963028;-73
2020/12/26 03:44:58;;;;;;;5.80;2.21;;;;;;;0.61;68.16;98980.06;324685;112;2600050;-73
2020/12/26 03:46:03;;;;;;;5.41;2.52;;;;;;;0.56;68.31;98975.22;333963;112;1961833;-72
2020/12/26 03:47:10;;;;;;;5.91;2.68;;;;;;;0.55;68.46;98973.53;354472;112;1962039;-72
2020/12/26 03:48:16;;;;;;;7.63;2.72;;;;;;;0.53;68.45;98978.20;357647;112;1961838;-72
2020/12/26 03:49:22;;;;;;;5.94;2.23;;;;;;;0.51;68.51;98971.37;342917;110;2304011;-71
2020/12/26 03:50:28;;;;;;;6.58;2.95;;;;;;;0.49;68.44;98968.03;357754;112;1962086;-72
2020/12/26 03:51:36;;;;;;;5.79;2.47;;;;;;;0.48;68.55;98971.66;323437;111;2030059;-71
2020/12/26 03:52:41;;;;;;;6.72;2.21;;;;;;;0.47;68.61;98975.33;356184;112;1961906;-72
2020/12/26 03:53:46;;;;;;;5.81;2.47;;;;;;;0.43;68.81;98974.82;356276;110;1962002;-71
2020/12/26 03:54:53;;;;;;;5.99;2.21;;;;;;;0.39;68.75;98963.66;359350;111;1961974;-72
2020/12/26 03:55:58;;;;;;;5.48;2.47;;;;;;;0.40;68.79;98970.66;346614;112;2207947;-72
2020/12/26 03:57:03;;;;;;;4.61;2.42;;;;;;;0.38;68.88;98971.80;355744;111;1960985;-72
2020/12/26 03:58:09;;;;;;;5.14;2.57;;;;;;;0.34;69.05;98973.92;364115;110;1965034;-72
2020/12/26 03:59:15;;;;;;;7.99;2.67;;;;;;;0.33;69.06;98966.13;362123;110;1961853;-72
2020/12/26 04:00:21;;;;;;;6.38;3.20;;;;;;;0.29;69.18;98968.27;342138;110;2307987;-71
2020/12/26 04:01:26;;;;;;;7.13;2.79;;;;;;;0.26;69.25;98963.25;335876;111;1961944;-71
2020/12/26 04:02:32;;;;;;;6.21;2.96;;;;;;;0.26;69.33;98962.42;356008;112;1961950;-71
2020/12/26 04:03:38;;;;;;;7.44;2.86;;;;;;;0.24;69.30;98962.59;358700;110;1962027;-72
2020/12/26 04:04:44;;;;;;;8.02;3.38;;;;;;;0.22;69.36;98969.88;339899;110;2404003;-72
2020/12/26 04:05:49;;;;;;;6.49;2.54;;;;;;;0.22;69.56;98972.54;344129;110;1962769;-72
2020/12/26 04:06:54;;;;;;;7.48;2.75;;;;;;;0.22;69.46;98961.91;355786;112;1960671;-72
2020/12/26 04:08:01;;;;;;;7.38;3.01;;;;;;;0.25;69.23;98958.11;358317;112;1961895;-72
2020/12/26 04:09:07;;;;;;;7.18;2.59;;;;;;;0.26;69.05;98965.08;335739;110;2458002;-72
2020/12/26 04:10:13;;;;;;;8.09;2.94;;;;;;;0.28;69.09;98965.77;360411;110;1961955;-70
2020/12/26 04:11:19;;;;;;;7.76;3.07;;;;;;;0.29;69.09;98960.30;356844;112;1965465;-72
2020/12/26 04:12:25;;;;;;;9.20;2.57;;;;;;;0.30;69.04;98977.89;345886;110;2266914;-71
2020/12/26 04:13:30;;;;;;;5.67;2.82;;;;;;;0.31;69.18;98971.58;335323;112;1961856;-70
2020/12/26 04:14:35;;;;;;;6.08;2.52;;;;;;;0.34;68.91;98971.26;356899;112;1961922;-71
2020/12/26 04:15:41;;;;;;;7.29;2.89;;;;;;;0.35;69.02;98974.77;357977;112;1961998;-72
2020/12/26 04:16:47;;;;;;;6.67;3.03;;;;;;;0.39;69.15;98970.80;356293;112;1963970;-73
2020/12/26 04:17:52;;;;;;;5.34;2.37;;;;;;;0.44;69.06;98979.13;332369;110;2493007;-73
2020/12/26 04:18:58;;;;;;;6.23;2.81;;;;;;;0.46;68.83;98973.67;331287;115;1960996;-71
2020/12/26 04:20:04;;;;;;;6.91;2.81;;;;;;;0.48;68.82;98974.32;355961;112;1964015;-72
2020/12/26 04:21:10;;;;;;;6.01;2.45;;;;;;;0.51;68.82;98982.00;360712;112;1961906;-73
2020/12/26 04:22:15;;;;;;;5.02;2.36;;;;;;;0.54;68.58;98979.85;318058;112;2237839;-74
2020/12/26 04:23:21;;;;;;;6.48;2.69;;;;;;;0.57;68.27;98987.50;351842;112;1961950;-71
2020/12/26 04:24:26;;;;;;;4.06;2.11;;;;;;;0.58;68.57;98996.30;356496;110;1961959;-73
2020/12/26 04:25:33;;;;;;;6.27;2.14;;;;;;;0.60;68.53;98997.81;358361;112;1962016;-73
2020/12/26 04:26:39;;;;;;;5.27;2.10;;;;;;;0.67;68.26;98995.36;324060;112;1978958;-72
2020/12/26 04:27:44;;;;;;;4.85;2.13;;;;;;;0.68;68.05;98988.22;358365;111;1962020;-73
2020/12/26 04:28:50;;;;;;;4.56;1.87;;;;;;;0.72;68.04;98997.55;357918;110;1961992;-73
2020/12/26 04:29:55;;;;;;;3.59;1.81;;;;;;;0.71;67.84;98995.87;360806;109;1961957;-73
2020/12/26 04:31:01;;;;;;;6.75;2.17;;;;;;;0.72;67.96;99000.21;335392;110;2222024;-73
2020/12/26 04:32:07;;;;;;;7.21;1.99;;;;;;;0.74;67.81;98987.56;357508;111;1962944;-73
2020/12/26 04:33:12;;;;;;;4.56;2.29;;;;;;;0.75;67.89;98997.23;351849;112;1965033;-71
2020/12/26 04:34:18;;;;;;;4.65;2.17;;;;;;;0.75;67.55;98989.25;345488;115;1962015;-72
2020/12/26 04:35:24;;;;;;;4.79;2.01;;;;;;;0.75;67.53;98989.25;332714;111;2435917;-72
2020/12/26 04:36:29;;;;;;;4.58;1.82;;;;;;;0.77;67.50;98993.42;346832;110;1962978;-72
2020/12/26 04:37:35;;;;;;;5.98;2.14;;;;;;;0.75;67.46;98991.91;357838;112;1961965;-72
2020/12/26 04:38:40;;;;;;;3.97;1.90;;;;;;;0.77;67.54;98992.59;357341;111;1962914;-73
2020/12/26 04:39:48;;;;;;;4.98;2.09;;;;;;;0.80;67.42;98990.44;349978;111;2890939;-73
2020/12/26 04:40:53;;;;;;;4.39;2.27;;;;;;;0.77;67.48;98993.42;356445;110;1962936;-73
2020/12/26 04:42:01;;;;;;;4.47;1.72;;;;;;;0.80;67.62;98994.92;352383;112;1962026;-74
2020/12/26 04:43:07;;;;;;;4.04;1.81;;;;;;;0.79;67.71;98996.73;351526;114;1961992;-74
2020/12/26 04:44:14;;;;;;;4.46;1.98;;;;;;;0.79;67.34;99007.36;363015;111;1962017;-73
2020/12/26 04:45:20;;;;;;;5.76;2.24;;;;;;;0.77;67.60;98996.08;326513;110;1973107;-74
2020/12/26 04:46:27;;;;;;;3.74;1.75;;;;;;;0.78;67.67;99008.37;361159;111;1961955;-73
2020/12/26 04:47:42;;;;;;;3.83;1.73;;;;;;;0.80;67.84;99008.22;359317;110;1961941;-74
2020/12/26 04:49:00;;;;;;;5.52;2.32;;;;;;;0.81;67.75;99016.02;327843;111;2634449;-73
2020/12/26 04:50:13;;;;;;;4.06;1.93;;;;;;;0.81;67.81;99009.87;358165;109;1960920;-74
2020/12/26 04:51:33;;;;;;;4.20;2.01;;;;;;;0.84;67.80;99012.20;359605;110;1961990;-73
2020/12/26 04:52:42;;;;;;;4.61;1.74;;;;;;;0.87;67.59;99014.55;363893;107;1961931;-73
2020/12/26 04:53:51;;;;;;;5.01;2.04;;;;;;;0.89;67.45;99012.56;368439;103;1961271;-74
2020/12/26 04:54:58;;;;;;;5.53;2.05;;;;;;;0.90;67.64;99019.56;364861;109;1962013;-73
2020/12/26 04:56:05;;;;;;;4.92;1.94;;;;;;;0.89;67.63;99025.86;323438;104;2801946;-74
2020/12/26 04:57:12;;;;;;;4.85;2.08;;;;;;;0.89;67.60;99017.87;360521;110;1963941;-74
2020/12/26 04:58:19;;;;;;;3.71;1.66;;;;;;;0.91;67.68;99023.88;302685;115;2905003;-74
2020/12/26 04:59:25;;;;;;;6.67;2.39;;;;;;;0.92;67.61;99030.02;360960;110;1961961;-74
2020/12/26 05:00:34;;;;;;;5.07;2.17;;;;;;;0.92;67.56;99024.70;348853;109;1961003;-74
2020/12/26 05:01:52;;;;;;;5.17;2.73;;;;;;;0.94;67.56;99031.53;360426;110;1962064;-74
2020/12/26 05:03:06;;;;;;;7.08;2.68;;;;;;;0.95;67.43;99032.36;360926;110;1961919;-74
2020/12/26 05:04:11;;;;;;;5.48;2.12;;;;;;;0.94;67.58;99030.70;355733;110;1962926;-72
2020/12/26 05:05:17;;;;;;;4.17;1.78;;;;;;;0.93;67.58;99029.88;359399;110;1961976;-73
2020/12/26 05:06:26;;;;;;;5.69;2.48;;;;;;;0.92;67.74;99028.20;352200;115;1961023;-72
2020/12/26 05:07:33;;;;;;;6.22;2.27;;;;;;;0.92;67.78;99019.39;351962;112;1961967;-72
2020/12/26 05:08:38;;;;;;;6.76;2.46;;;;;;;0.94;67.74;99020.89;324601;112;2531009;-72
2020/12/26 05:09:44;;;;;;;6.16;2.81;;;;;;;0.93;67.84;99023.70;348090;114;1961957;-74